sensor_id;sensor_type;location;lat;lon;timestamp;P1;durP1;ratioP1;P2;durP2;ratioP2
23236;SDS011;11787;52.018;8.570;2023-03-23T00:01:14;3.90;;;2.13;;
23236;SDS011;11787;52.018;8.570;2023-03-23T00:03:50;4.38;;;2.35;;
23236;SDS011;11787;52.018;8.570;2023-03-23T00:06:17;4.28;;;2.17;;
23236;SDS011;11787;52.018;8.570;2023-03-23T00:08:44;4.78;;;2.35;;
23236;SDS011;11787;52.018;8.570;2023-03-23T00:11:19;5.38;;;2.55;;
23236;SDS011;11787;52.018;8.570;2023-03-23T00:13:46;5.35;;;2.97;;
23236;SDS011;11787;52.018;8.570;2023-03-23T00:16:17;3.67;;;2.30;;
23236;SDS011;11787;52.018;8.570;2023-03-23T00:18:55;4.18;;;2.75;;
23236;SDS011;11787;52.018;8.570;2023-03-23T00:21:23;5.30;;;2.58;;
23236;SDS011;11787;52.018;8.570;2023-03-23T00:23:59;4.28;;;2.70;;
23236;SDS011;11787;52.018;8.570;2023-03-23T00:26:29;3.28;;;2.30;;
23236;SDS011;11787;52.018;8.570;2023-03-23T00:28:58;3.95;;;2.63;;
23236;SDS011;11787;52.018;8.570;2023-03-23T00:31:25;5.82;;;2.38;;
23236;SDS011;11787;52.018;8.570;2023-03-23T00:33:56;4.13;;;2.72;;
23236;SDS011;11787;52.018;8.570;2023-03-23T00:36:23;4.22;;;2.70;;
23236;SDS011;11787;52.018;8.570;2023-03-23T00:38:49;6.90;;;2.70;;
23236;SDS011;11787;52.018;8.570;2023-03-23T00:41:15;9.32;;;3.20;;
23236;SDS011;11787;52.018;8.570;2023-03-23T00:43:40;4.88;;;2.83;;
23236;SDS011;11787;52.018;8.570;2023-03-23T00:46:06;4.47;;;2.67;;
23236;SDS011;11787;52.018;8.570;2023-03-23T00:48:35;6.22;;;3.17;;
23236;SDS011;11787;52.018;8.570;2023-03-23T00:51:05;4.57;;;2.55;;
23236;SDS011;11787;52.018;8.570;2023-03-23T00:53:37;8.82;;;3.20;;
23236;SDS011;11787;52.018;8.570;2023-03-23T00:56:06;5.05;;;3.13;;
23236;SDS011;11787;52.018;8.570;2023-03-23T00:58:32;5.00;;;3.10;;
23236;SDS011;11787;52.018;8.570;2023-03-23T01:00:58;4.53;;;2.90;;
23236;SDS011;11787;52.018;8.570;2023-03-23T01:03:24;4.53;;;2.80;;
23236;SDS011;11787;52.018;8.570;2023-03-23T01:05:51;6.03;;;2.50;;
23236;SDS011;11787;52.018;8.570;2023-03-23T01:08:17;6.40;;;3.13;;
23236;SDS011;11787;52.018;8.570;2023-03-23T01:10:44;4.63;;;2.78;;
23236;SDS011;11787;52.018;8.570;2023-03-23T01:13:10;4.70;;;2.83;;
23236;SDS011;11787;52.018;8.570;2023-03-23T01:15:37;5.13;;;2.90;;
23236;SDS011;11787;52.018;8.570;2023-03-23T01:18:03;4.35;;;2.60;;
23236;SDS011;11787;52.018;8.570;2023-03-23T01:20:29;3.60;;;2.58;;
23236;SDS011;11787;52.018;8.570;2023-03-23T01:22:56;4.15;;;2.20;;
23236;SDS011;11787;52.018;8.570;2023-03-23T01:25:26;5.82;;;2.28;;
23236;SDS011;11787;52.018;8.570;2023-03-23T01:27:56;4.43;;;2.20;;
23236;SDS011;11787;52.018;8.570;2023-03-23T01:30:23;5.03;;;2.47;;
23236;SDS011;11787;52.018;8.570;2023-03-23T01:32:49;4.72;;;2.38;;
23236;SDS011;11787;52.018;8.570;2023-03-23T01:35:15;4.05;;;2.30;;
23236;SDS011;11787;52.018;8.570;2023-03-23T01:37:41;5.30;;;2.25;;
23236;SDS011;11787;52.018;8.570;2023-03-23T01:40:07;4.13;;;2.70;;
23236;SDS011;11787;52.018;8.570;2023-03-23T01:42:34;3.88;;;2.40;;
23236;SDS011;11787;52.018;8.570;2023-03-23T01:47:47;3.27;;;2.10;;
23236;SDS011;11787;52.018;8.570;2023-03-23T01:50:17;3.75;;;2.25;;
23236;SDS011;11787;52.018;8.570;2023-03-23T01:52:47;3.95;;;2.03;;
23236;SDS011;11787;52.018;8.570;2023-03-23T01:55:14;3.80;;;2.05;;
23236;SDS011;11787;52.018;8.570;2023-03-23T01:57:40;6.28;;;2.38;;
23236;SDS011;11787;52.018;8.570;2023-03-23T02:00:07;4.38;;;2.05;;
23236;SDS011;11787;52.018;8.570;2023-03-23T02:02:41;3.60;;;2.00;;
23236;SDS011;11787;52.018;8.570;2023-03-23T02:05:11;4.45;;;2.20;;
23236;SDS011;11787;52.018;8.570;2023-03-23T02:07:44;5.45;;;2.45;;
23236;SDS011;11787;52.018;8.570;2023-03-23T02:10:11;2.38;;;2.03;;
23236;SDS011;11787;52.018;8.570;2023-03-23T02:12:37;3.63;;;2.17;;
23236;SDS011;11787;52.018;8.570;2023-03-23T02:15:03;3.95;;;2.20;;
23236;SDS011;11787;52.018;8.570;2023-03-23T02:17:42;3.40;;;2.08;;
23236;SDS011;11787;52.018;8.570;2023-03-23T02:23:13;4.63;;;2.13;;
23236;SDS011;11787;52.018;8.570;2023-03-23T02:26:16;5.20;;;2.07;;
23236;SDS011;11787;52.018;8.570;2023-03-23T02:34:28;3.45;;;1.92;;
23236;SDS011;11787;52.018;8.570;2023-03-23T02:37:01;4.15;;;2.10;;
23236;SDS011;11787;52.018;8.570;2023-03-23T02:39:34;5.13;;;2.17;;
23236;SDS011;11787;52.018;8.570;2023-03-23T02:42:06;5.47;;;2.63;;
23236;SDS011;11787;52.018;8.570;2023-03-23T02:44:36;5.53;;;2.13;;
23236;SDS011;11787;52.018;8.570;2023-03-23T02:47:06;4.07;;;2.47;;
23236;SDS011;11787;52.018;8.570;2023-03-23T02:49:36;2.88;;;1.95;;
23236;SDS011;11787;52.018;8.570;2023-03-23T02:52:07;4.70;;;1.80;;
23236;SDS011;11787;52.018;8.570;2023-03-23T02:54:37;3.13;;;2.42;;
23236;SDS011;11787;52.018;8.570;2023-03-23T02:57:04;3.08;;;2.20;;
23236;SDS011;11787;52.018;8.570;2023-03-23T02:59:31;3.92;;;1.95;;
23236;SDS011;11787;52.018;8.570;2023-03-23T03:04:26;3.75;;;2.05;;
23236;SDS011;11787;52.018;8.570;2023-03-23T03:09:54;2.88;;;2.22;;
23236;SDS011;11787;52.018;8.570;2023-03-23T03:12:34;2.95;;;2.20;;
23236;SDS011;11787;52.018;8.570;2023-03-23T03:15:10;4.15;;;1.73;;
23236;SDS011;11787;52.018;8.570;2023-03-23T03:17:55;3.90;;;2.20;;
23236;SDS011;11787;52.018;8.570;2023-03-23T03:20:28;2.88;;;1.80;;
23236;SDS011;11787;52.018;8.570;2023-03-23T03:22:55;4.20;;;1.92;;
23236;SDS011;11787;52.018;8.570;2023-03-23T03:25:23;3.20;;;2.10;;
23236;SDS011;11787;52.018;8.570;2023-03-23T03:27:52;3.30;;;1.80;;
23236;SDS011;11787;52.018;8.570;2023-03-23T03:30:20;3.47;;;1.80;;
23236;SDS011;11787;52.018;8.570;2023-03-23T03:32:49;3.22;;;1.80;;
23236;SDS011;11787;52.018;8.570;2023-03-23T03:35:18;2.95;;;1.92;;
23236;SDS011;11787;52.018;8.570;2023-03-23T03:37:45;2.70;;;1.63;;
23236;SDS011;11787;52.018;8.570;2023-03-23T03:40:13;2.58;;;1.67;;
23236;SDS011;11787;52.018;8.570;2023-03-23T03:42:42;3.00;;;1.63;;
23236;SDS011;11787;52.018;8.570;2023-03-23T03:45:09;4.25;;;1.98;;
23236;SDS011;11787;52.018;8.570;2023-03-23T03:47:38;2.45;;;1.60;;
23236;SDS011;11787;52.018;8.570;2023-03-23T03:50:04;4.85;;;1.90;;
23236;SDS011;11787;52.018;8.570;2023-03-23T03:52:30;3.40;;;1.67;;
23236;SDS011;11787;52.018;8.570;2023-03-23T03:54:56;1.83;;;1.60;;
23236;SDS011;11787;52.018;8.570;2023-03-23T03:57:22;3.97;;;1.85;;
23236;SDS011;11787;52.018;8.570;2023-03-23T03:59:48;2.63;;;1.50;;
23236;SDS011;11787;52.018;8.570;2023-03-23T04:02:14;3.63;;;1.90;;
23236;SDS011;11787;52.018;8.570;2023-03-23T04:04:44;2.75;;;1.70;;
23236;SDS011;11787;52.018;8.570;2023-03-23T04:07:14;4.10;;;1.70;;
23236;SDS011;11787;52.018;8.570;2023-03-23T04:09:41;3.22;;;1.67;;
23236;SDS011;11787;52.018;8.570;2023-03-23T04:12:08;3.95;;;1.60;;
23236;SDS011;11787;52.018;8.570;2023-03-23T04:14:34;4.03;;;1.77;;
23236;SDS011;11787;52.018;8.570;2023-03-23T04:17:00;4.95;;;1.63;;
23236;SDS011;11787;52.018;8.570;2023-03-23T04:19:26;2.17;;;1.50;;
23236;SDS011;11787;52.018;8.570;2023-03-23T04:21:53;2.75;;;1.50;;
23236;SDS011;11787;52.018;8.570;2023-03-23T04:24:20;3.05;;;1.63;;
23236;SDS011;11787;52.018;8.570;2023-03-23T04:26:49;2.75;;;1.70;;
23236;SDS011;11787;52.018;8.570;2023-03-23T04:29:17;2.97;;;1.50;;
23236;SDS011;11787;52.018;8.570;2023-03-23T04:31:43;3.00;;;1.52;;
23236;SDS011;11787;52.018;8.570;2023-03-23T04:34:10;2.80;;;1.63;;
23236;SDS011;11787;52.018;8.570;2023-03-23T04:36:38;5.35;;;1.60;;
23236;SDS011;11787;52.018;8.570;2023-03-23T04:39:04;3.22;;;1.67;;
23236;SDS011;11787;52.018;8.570;2023-03-23T04:41:34;3.38;;;1.85;;
23236;SDS011;11787;52.018;8.570;2023-03-23T04:44:00;2.47;;;1.60;;
23236;SDS011;11787;52.018;8.570;2023-03-23T04:46:28;2.72;;;1.20;;
23236;SDS011;11787;52.018;8.570;2023-03-23T04:48:55;2.88;;;1.40;;
23236;SDS011;11787;52.018;8.570;2023-03-23T04:51:23;2.10;;;1.30;;
23236;SDS011;11787;52.018;8.570;2023-03-23T04:53:51;3.60;;;1.40;;
23236;SDS011;11787;52.018;8.570;2023-03-23T04:56:17;3.40;;;1.60;;
23236;SDS011;11787;52.018;8.570;2023-03-23T04:58:43;2.00;;;1.23;;
23236;SDS011;11787;52.018;8.570;2023-03-23T05:01:10;2.35;;;1.40;;
23236;SDS011;11787;52.018;8.570;2023-03-23T05:03:39;2.63;;;1.83;;
23236;SDS011;11787;52.018;8.570;2023-03-23T05:06:05;2.10;;;1.40;;
23236;SDS011;11787;52.018;8.570;2023-03-23T05:08:31;2.85;;;1.67;;
23236;SDS011;11787;52.018;8.570;2023-03-23T05:10:58;4.88;;;1.30;;
23236;SDS011;11787;52.018;8.570;2023-03-23T05:13:25;1.60;;;1.30;;
23236;SDS011;11787;52.018;8.570;2023-03-23T05:15:52;2.65;;;1.20;;
23236;SDS011;11787;52.018;8.570;2023-03-23T05:18:18;3.20;;;1.50;;
23236;SDS011;11787;52.018;8.570;2023-03-23T05:20:45;4.60;;;1.30;;
23236;SDS011;11787;52.018;8.570;2023-03-23T05:23:12;2.70;;;1.20;;
23236;SDS011;11787;52.018;8.570;2023-03-23T05:25:38;1.90;;;1.17;;
23236;SDS011;11787;52.018;8.570;2023-03-23T05:28:10;3.80;;;1.38;;
23236;SDS011;11787;52.018;8.570;2023-03-23T05:30:37;2.92;;;1.40;;
23236;SDS011;11787;52.018;8.570;2023-03-23T05:33:04;2.80;;;1.70;;
23236;SDS011;11787;52.018;8.570;2023-03-23T05:35:30;3.15;;;1.27;;
23236;SDS011;11787;52.018;8.570;2023-03-23T05:37:56;2.85;;;1.50;;
23236;SDS011;11787;52.018;8.570;2023-03-23T05:40:22;2.08;;;1.52;;
23236;SDS011;11787;52.018;8.570;2023-03-23T05:42:50;2.65;;;1.42;;
23236;SDS011;11787;52.018;8.570;2023-03-23T05:45:16;1.75;;;1.38;;
23236;SDS011;11787;52.018;8.570;2023-03-23T05:47:43;3.58;;;1.60;;
23236;SDS011;11787;52.018;8.570;2023-03-23T05:50:09;1.50;;;1.23;;
23236;SDS011;11787;52.018;8.570;2023-03-23T05:52:35;3.17;;;1.30;;
23236;SDS011;11787;52.018;8.570;2023-03-23T05:55:01;2.25;;;1.48;;
23236;SDS011;11787;52.018;8.570;2023-03-23T05:57:28;2.20;;;1.40;;
23236;SDS011;11787;52.018;8.570;2023-03-23T05:59:55;3.47;;;1.52;;
23236;SDS011;11787;52.018;8.570;2023-03-23T06:02:22;2.90;;;1.30;;
23236;SDS011;11787;52.018;8.570;2023-03-23T06:04:49;2.53;;;1.58;;
23236;SDS011;11787;52.018;8.570;2023-03-23T06:07:15;3.13;;;1.42;;
23236;SDS011;11787;52.018;8.570;2023-03-23T06:09:41;1.75;;;1.40;;
23236;SDS011;11787;52.018;8.570;2023-03-23T06:12:06;2.20;;;1.33;;
23236;SDS011;11787;52.018;8.570;2023-03-23T06:14:34;3.05;;;1.45;;
23236;SDS011;11787;52.018;8.570;2023-03-23T06:17:00;1.50;;;1.25;;
23236;SDS011;11787;52.018;8.570;2023-03-23T06:19:26;2.28;;;1.40;;
23236;SDS011;11787;52.018;8.570;2023-03-23T06:21:52;2.00;;;1.45;;
23236;SDS011;11787;52.018;8.570;2023-03-23T06:24:19;2.90;;;1.38;;
23236;SDS011;11787;52.018;8.570;2023-03-23T06:26:44;2.30;;;1.42;;
23236;SDS011;11787;52.018;8.570;2023-03-23T06:29:10;1.65;;;1.40;;
23236;SDS011;11787;52.018;8.570;2023-03-23T06:31:40;1.85;;;1.52;;
23236;SDS011;11787;52.018;8.570;2023-03-23T06:34:08;2.78;;;1.50;;
23236;SDS011;11787;52.018;8.570;2023-03-23T06:36:35;2.85;;;1.50;;
23236;SDS011;11787;52.018;8.570;2023-03-23T06:39:01;3.38;;;1.80;;
23236;SDS011;11787;52.018;8.570;2023-03-23T06:41:29;3.78;;;1.77;;
23236;SDS011;11787;52.018;8.570;2023-03-23T06:43:55;2.47;;;1.65;;
23236;SDS011;11787;52.018;8.570;2023-03-23T06:46:21;3.80;;;1.40;;
23236;SDS011;11787;52.018;8.570;2023-03-23T06:48:46;2.88;;;1.35;;
23236;SDS011;11787;52.018;8.570;2023-03-23T06:51:14;2.67;;;1.60;;
23236;SDS011;11787;52.018;8.570;2023-03-23T06:53:40;2.78;;;1.50;;
23236;SDS011;11787;52.018;8.570;2023-03-23T06:56:06;2.28;;;1.75;;
23236;SDS011;11787;52.018;8.570;2023-03-23T06:58:32;3.08;;;1.45;;
23236;SDS011;11787;52.018;8.570;2023-03-23T07:00:58;2.70;;;1.65;;
23236;SDS011;11787;52.018;8.570;2023-03-23T07:03:23;6.25;;;1.50;;
23236;SDS011;11787;52.018;8.570;2023-03-23T07:05:51;3.05;;;1.88;;
23236;SDS011;11787;52.018;8.570;2023-03-23T07:08:16;3.10;;;1.63;;
23236;SDS011;11787;52.018;8.570;2023-03-23T07:10:42;2.42;;;1.30;;
23236;SDS011;11787;52.018;8.570;2023-03-23T07:13:08;2.75;;;1.65;;
23236;SDS011;11787;52.018;8.570;2023-03-23T07:15:35;2.05;;;1.40;;
23236;SDS011;11787;52.018;8.570;2023-03-23T07:18:02;1.70;;;1.38;;
23236;SDS011;11787;52.018;8.570;2023-03-23T07:20:27;3.28;;;1.63;;
23236;SDS011;11787;52.018;8.570;2023-03-23T07:22:53;2.25;;;1.63;;
23236;SDS011;11787;52.018;8.570;2023-03-23T07:25:19;2.45;;;1.48;;
23236;SDS011;11787;52.018;8.570;2023-03-23T07:27:45;2.35;;;1.70;;
23236;SDS011;11787;52.018;8.570;2023-03-23T07:30:11;2.60;;;1.30;;
23236;SDS011;11787;52.018;8.570;2023-03-23T07:32:39;2.35;;;1.60;;
23236;SDS011;11787;52.018;8.570;2023-03-23T07:35:05;2.03;;;1.50;;
23236;SDS011;11787;52.018;8.570;2023-03-23T07:37:31;2.67;;;1.60;;
23236;SDS011;11787;52.018;8.570;2023-03-23T07:39:57;2.85;;;1.55;;
23236;SDS011;11787;52.018;8.570;2023-03-23T07:42:23;4.80;;;1.63;;
23236;SDS011;11787;52.018;8.570;2023-03-23T07:44:48;5.40;;;1.45;;
23236;SDS011;11787;52.018;8.570;2023-03-23T07:47:14;3.40;;;1.67;;
23236;SDS011;11787;52.018;8.570;2023-03-23T07:49:40;3.25;;;1.60;;
23236;SDS011;11787;52.018;8.570;2023-03-23T07:52:06;3.60;;;1.88;;
23236;SDS011;11787;52.018;8.570;2023-03-23T07:54:31;5.70;;;1.90;;
23236;SDS011;11787;52.018;8.570;2023-03-23T07:56:57;6.35;;;1.73;;
23236;SDS011;11787;52.018;8.570;2023-03-23T07:59:22;6.18;;;1.85;;
23236;SDS011;11787;52.018;8.570;2023-03-23T08:01:48;5.97;;;1.70;;
23236;SDS011;11787;52.018;8.570;2023-03-23T08:04:13;3.30;;;2.03;;
23236;SDS011;11787;52.018;8.570;2023-03-23T08:06:40;5.25;;;2.15;;
23236;SDS011;11787;52.018;8.570;2023-03-23T08:09:07;3.80;;;2.17;;
23236;SDS011;11787;52.018;8.570;2023-03-23T08:11:34;5.22;;;2.05;;
23236;SDS011;11787;52.018;8.570;2023-03-23T08:14:00;4.95;;;2.00;;
23236;SDS011;11787;52.018;8.570;2023-03-23T08:16:26;4.22;;;2.42;;
23236;SDS011;11787;52.018;8.570;2023-03-23T08:18:52;4.88;;;1.77;;
23236;SDS011;11787;52.018;8.570;2023-03-23T08:21:18;3.65;;;1.70;;
23236;SDS011;11787;52.018;8.570;2023-03-23T08:23:43;3.90;;;2.03;;
23236;SDS011;11787;52.018;8.570;2023-03-23T08:26:10;4.78;;;1.70;;
23236;SDS011;11787;52.018;8.570;2023-03-23T08:28:36;2.53;;;1.50;;
23236;SDS011;11787;52.018;8.570;2023-03-23T08:31:06;3.97;;;1.90;;
23236;SDS011;11787;52.018;8.570;2023-03-23T08:33:33;4.60;;;1.85;;
23236;SDS011;11787;52.018;8.570;2023-03-23T08:35:59;3.28;;;1.83;;
23236;SDS011;11787;52.018;8.570;2023-03-23T08:38:26;4.28;;;2.17;;
23236;SDS011;11787;52.018;8.570;2023-03-23T08:40:56;4.60;;;1.80;;
23236;SDS011;11787;52.018;8.570;2023-03-23T08:43:26;4.43;;;2.00;;
23236;SDS011;11787;52.018;8.570;2023-03-23T08:45:52;6.20;;;2.08;;
23236;SDS011;11787;52.018;8.570;2023-03-23T08:48:18;6.38;;;1.75;;
23236;SDS011;11787;52.018;8.570;2023-03-23T08:50:44;7.28;;;2.30;;
23236;SDS011;11787;52.018;8.570;2023-03-23T08:53:10;5.80;;;2.35;;
23236;SDS011;11787;52.018;8.570;2023-03-23T08:55:36;4.55;;;1.98;;
23236;SDS011;11787;52.018;8.570;2023-03-23T08:58:02;4.65;;;1.95;;
23236;SDS011;11787;52.018;8.570;2023-03-23T09:00:28;3.97;;;1.95;;
23236;SDS011;11787;52.018;8.570;2023-03-23T09:02:56;4.55;;;2.22;;
23236;SDS011;11787;52.018;8.570;2023-03-23T09:05:23;4.55;;;1.77;;
23236;SDS011;11787;52.018;8.570;2023-03-23T09:07:51;5.65;;;2.13;;
23236;SDS011;11787;52.018;8.570;2023-03-23T09:10:18;3.80;;;1.55;;
23236;SDS011;11787;52.018;8.570;2023-03-23T09:12:45;4.40;;;1.80;;
23236;SDS011;11787;52.018;8.570;2023-03-23T09:15:12;4.13;;;1.70;;
23236;SDS011;11787;52.018;8.570;2023-03-23T09:17:46;5.80;;;1.80;;
23236;SDS011;11787;52.018;8.570;2023-03-23T09:20:15;6.55;;;2.28;;
23236;SDS011;11787;52.018;8.570;2023-03-23T09:22:44;4.05;;;1.90;;
23236;SDS011;11787;52.018;8.570;2023-03-23T09:25:12;5.03;;;1.70;;
23236;SDS011;11787;52.018;8.570;2023-03-23T09:27:40;6.28;;;2.25;;
23236;SDS011;11787;52.018;8.570;2023-03-23T09:30:07;5.25;;;2.22;;
23236;SDS011;11787;52.018;8.570;2023-03-23T09:32:35;4.47;;;1.52;;
23236;SDS011;11787;52.018;8.570;2023-03-23T09:35:02;5.25;;;1.60;;
23236;SDS011;11787;52.018;8.570;2023-03-23T09:37:29;5.03;;;2.08;;
23236;SDS011;11787;52.018;8.570;2023-03-23T09:39:55;3.88;;;1.75;;
23236;SDS011;11787;52.018;8.570;2023-03-23T09:48:11;5.10;;;2.10;;
23236;SDS011;11787;52.018;8.570;2023-03-23T09:50:42;6.25;;;2.17;;
23236;SDS011;11787;52.018;8.570;2023-03-23T09:55:40;5.05;;;1.88;;
23236;SDS011;11787;52.018;8.570;2023-03-23T10:00:45;6.10;;;2.03;;
23236;SDS011;11787;52.018;8.570;2023-03-23T10:03:24;4.10;;;1.70;;
23236;SDS011;11787;52.018;8.570;2023-03-23T10:05:53;7.72;;;1.90;;
23236;SDS011;11787;52.018;8.570;2023-03-23T10:08:24;6.10;;;1.92;;
23236;SDS011;11787;52.018;8.570;2023-03-23T10:22:25;6.53;;;2.10;;
23236;SDS011;11787;52.018;8.570;2023-03-23T10:27:59;3.83;;;1.42;;
23236;SDS011;11787;52.018;8.570;2023-03-23T10:30:38;4.68;;;2.00;;
23236;SDS011;11787;52.018;8.570;2023-03-23T10:35:52;5.28;;;1.98;;
23236;SDS011;11787;52.018;8.570;2023-03-23T10:38:32;8.30;;;2.25;;
23236;SDS011;11787;52.018;8.570;2023-03-23T10:41:22;4.65;;;2.20;;
23236;SDS011;11787;52.018;8.570;2023-03-23T10:43:47;5.10;;;1.75;;
23236;SDS011;11787;52.018;8.570;2023-03-23T10:46:30;4.22;;;2.00;;
23236;SDS011;11787;52.018;8.570;2023-03-23T10:49:13;4.28;;;1.50;;
23236;SDS011;11787;52.018;8.570;2023-03-23T10:51:45;4.47;;;1.75;;
23236;SDS011;11787;52.018;8.570;2023-03-23T10:54:24;5.85;;;1.98;;
23236;SDS011;11787;52.018;8.570;2023-03-23T10:56:58;5.50;;;2.33;;
23236;SDS011;11787;52.018;8.570;2023-03-23T10:59:28;5.53;;;2.15;;
23236;SDS011;11787;52.018;8.570;2023-03-23T11:01:56;3.85;;;1.00;;
23236;SDS011;11787;52.018;8.570;2023-03-23T11:04:25;1.60;;;0.40;;
23236;SDS011;11787;52.018;8.570;2023-03-23T11:06:52;1.17;;;0.50;;
23236;SDS011;11787;52.018;8.570;2023-03-23T11:09:20;3.72;;;0.63;;
23236;SDS011;11787;52.018;8.570;2023-03-23T11:11:57;2.83;;;0.80;;
23236;SDS011;11787;52.018;8.570;2023-03-23T11:14:27;1.13;;;0.32;;
23236;SDS011;11787;52.018;8.570;2023-03-23T11:19:34;2.28;;;0.63;;
23236;SDS011;11787;52.018;8.570;2023-03-23T11:24:34;1.58;;;0.40;;
23236;SDS011;11787;52.018;8.570;2023-03-23T11:27:05;4.13;;;0.60;;
23236;SDS011;11787;52.018;8.570;2023-03-23T11:29:33;1.73;;;0.60;;
23236;SDS011;11787;52.018;8.570;2023-03-23T11:32:03;1.52;;;0.70;;
23236;SDS011;11787;52.018;8.570;2023-03-23T11:34:40;1.40;;;0.70;;
23236;SDS011;11787;52.018;8.570;2023-03-23T11:39:54;1.25;;;0.50;;
23236;SDS011;11787;52.018;8.570;2023-03-23T11:42:45;1.98;;;0.50;;
23236;SDS011;11787;52.018;8.570;2023-03-23T11:45:17;0.90;;;0.40;;
23236;SDS011;11787;52.018;8.570;2023-03-23T11:50:49;3.90;;;0.70;;
23236;SDS011;11787;52.018;8.570;2023-03-23T11:58:41;2.53;;;0.70;;
23236;SDS011;11787;52.018;8.570;2023-03-23T12:04:37;1.25;;;0.65;;
23236;SDS011;11787;52.018;8.570;2023-03-23T12:06:49;2.97;;;0.70;;
23236;SDS011;11787;52.018;8.570;2023-03-23T12:09:52;6.32;;;1.33;;
23236;SDS011;11787;52.018;8.570;2023-03-23T12:12:37;4.20;;;1.10;;
23236;SDS011;11787;52.018;8.570;2023-03-23T12:33:25;3.63;;;0.90;;
23236;SDS011;11787;52.018;8.570;2023-03-23T12:41:16;2.13;;;0.90;;
23236;SDS011;11787;52.018;8.570;2023-03-23T12:49:18;2.08;;;0.85;;
23236;SDS011;11787;52.018;8.570;2023-03-23T12:51:57;2.53;;;0.68;;
23236;SDS011;11787;52.018;8.570;2023-03-23T12:57:31;2.83;;;0.90;;
23236;SDS011;11787;52.018;8.570;2023-03-23T13:23:56;2.20;;;0.90;;
23236;SDS011;11787;52.018;8.570;2023-03-23T13:26:24;2.55;;;1.13;;
23236;SDS011;11787;52.018;8.570;2023-03-23T13:31:30;2.75;;;1.10;;
23236;SDS011;11787;52.018;8.570;2023-03-23T13:34:05;1.50;;;1.10;;
23236;SDS011;11787;52.018;8.570;2023-03-23T13:50:03;3.90;;;1.83;;
23236;SDS011;11787;52.018;8.570;2023-03-23T13:52:36;4.10;;;2.00;;
23236;SDS011;11787;52.018;8.570;2023-03-23T14:08:20;3.58;;;1.83;;
23236;SDS011;11787;52.018;8.570;2023-03-23T14:11:11;4.90;;;1.65;;
23236;SDS011;11787;52.018;8.570;2023-03-23T14:16:25;26.88;;;4.68;;
23236;SDS011;11787;52.018;8.570;2023-03-23T14:21:54;2.90;;;1.85;;
23236;SDS011;11787;52.018;8.570;2023-03-23T14:24:31;2.47;;;1.50;;
23236;SDS011;11787;52.018;8.570;2023-03-23T14:27:17;3.83;;;1.85;;
23236;SDS011;11787;52.018;8.570;2023-03-23T14:29:57;3.65;;;1.70;;
23236;SDS011;11787;52.018;8.570;2023-03-23T14:32:24;4.10;;;1.80;;
23236;SDS011;11787;52.018;8.570;2023-03-23T14:34:52;3.78;;;1.63;;
23236;SDS011;11787;52.018;8.570;2023-03-23T14:37:19;2.63;;;1.90;;
23236;SDS011;11787;52.018;8.570;2023-03-23T14:39:47;6.18;;;2.05;;
23236;SDS011;11787;52.018;8.570;2023-03-23T14:42:15;2.95;;;1.98;;
23236;SDS011;11787;52.018;8.570;2023-03-23T14:44:43;5.85;;;2.30;;
23236;SDS011;11787;52.018;8.570;2023-03-23T14:47:24;4.40;;;2.95;;
23236;SDS011;11787;52.018;8.570;2023-03-23T14:49:55;4.63;;;2.38;;
23236;SDS011;11787;52.018;8.570;2023-03-23T14:52:24;3.75;;;2.60;;
23236;SDS011;11787;52.018;8.570;2023-03-23T14:54:52;4.50;;;2.80;;
23236;SDS011;11787;52.018;8.570;2023-03-23T14:59:49;4.07;;;2.42;;
23236;SDS011;11787;52.018;8.570;2023-03-23T15:05:10;3.38;;;3.08;;
23236;SDS011;11787;52.018;8.570;2023-03-23T15:07:40;4.28;;;3.00;;
23236;SDS011;11787;52.018;8.570;2023-03-23T15:10:09;3.90;;;2.80;;
23236;SDS011;11787;52.018;8.570;2023-03-23T15:12:43;3.33;;;2.90;;
23236;SDS011;11787;52.018;8.570;2023-03-23T15:15:21;3.88;;;3.08;;
23236;SDS011;11787;52.018;8.570;2023-03-23T15:17:51;4.78;;;3.30;;
23236;SDS011;11787;52.018;8.570;2023-03-23T15:20:25;3.10;;;2.78;;
23236;SDS011;11787;52.018;8.570;2023-03-23T15:22:52;4.80;;;3.08;;
23236;SDS011;11787;52.018;8.570;2023-03-23T15:25:20;5.72;;;2.85;;
23236;SDS011;11787;52.018;8.570;2023-03-23T15:27:53;2.95;;;2.55;;
23236;SDS011;11787;52.018;8.570;2023-03-23T15:32:49;4.30;;;2.58;;
23236;SDS011;11787;52.018;8.570;2023-03-23T15:35:25;5.57;;;3.22;;
23236;SDS011;11787;52.018;8.570;2023-03-23T15:37:52;4.10;;;2.97;;
23236;SDS011;11787;52.018;8.570;2023-03-23T15:40:32;4.25;;;2.80;;
23236;SDS011;11787;52.018;8.570;2023-03-23T15:43:17;3.95;;;2.65;;
23236;SDS011;11787;52.018;8.570;2023-03-23T15:48:18;4.30;;;2.80;;
23236;SDS011;11787;52.018;8.570;2023-03-23T15:50:43;3.47;;;2.35;;
23236;SDS011;11787;52.018;8.570;2023-03-23T15:53:18;6.38;;;2.97;;
23236;SDS011;11787;52.018;8.570;2023-03-23T15:55:49;5.00;;;2.75;;
23236;SDS011;11787;52.018;8.570;2023-03-23T15:58:15;4.57;;;2.53;;
23236;SDS011;11787;52.018;8.570;2023-03-23T16:00:41;3.85;;;2.47;;
23236;SDS011;11787;52.018;8.570;2023-03-23T16:03:10;4.70;;;2.53;;
23236;SDS011;11787;52.018;8.570;2023-03-23T16:05:38;3.63;;;2.40;;
23236;SDS011;11787;52.018;8.570;2023-03-23T16:08:04;4.13;;;2.25;;
23236;SDS011;11787;52.018;8.570;2023-03-23T16:10:30;4.68;;;2.45;;
23236;SDS011;11787;52.018;8.570;2023-03-23T16:12:55;4.63;;;2.55;;
23236;SDS011;11787;52.018;8.570;2023-03-23T16:15:21;5.38;;;2.55;;
23236;SDS011;11787;52.018;8.570;2023-03-23T16:17:47;6.43;;;3.30;;
23236;SDS011;11787;52.018;8.570;2023-03-23T16:20:13;4.63;;;2.70;;
23236;SDS011;11787;52.018;8.570;2023-03-23T16:22:41;5.30;;;2.83;;
23236;SDS011;11787;52.018;8.570;2023-03-23T16:25:07;3.67;;;2.95;;
23236;SDS011;11787;52.018;8.570;2023-03-23T16:27:33;5.63;;;2.80;;
23236;SDS011;11787;52.018;8.570;2023-03-23T16:30:00;5.07;;;3.00;;
23236;SDS011;11787;52.018;8.570;2023-03-23T16:32:27;4.68;;;2.80;;
23236;SDS011;11787;52.018;8.570;2023-03-23T16:34:53;3.40;;;2.90;;
23236;SDS011;11787;52.018;8.570;2023-03-23T16:37:19;5.70;;;2.97;;
23236;SDS011;11787;52.018;8.570;2023-03-23T16:39:45;3.28;;;2.50;;
23236;SDS011;11787;52.018;8.570;2023-03-23T16:42:11;4.25;;;2.80;;
23236;SDS011;11787;52.018;8.570;2023-03-23T16:44:37;4.20;;;2.78;;
23236;SDS011;11787;52.018;8.570;2023-03-23T16:47:02;5.38;;;3.22;;
23236;SDS011;11787;52.018;8.570;2023-03-23T16:49:28;4.47;;;3.10;;
23236;SDS011;11787;52.018;8.570;2023-03-23T16:51:53;4.10;;;3.28;;
23236;SDS011;11787;52.018;8.570;2023-03-23T16:54:24;4.68;;;2.88;;
23236;SDS011;11787;52.018;8.570;2023-03-23T16:56:50;4.82;;;3.30;;
23236;SDS011;11787;52.018;8.570;2023-03-23T16:59:15;5.53;;;3.33;;
23236;SDS011;11787;52.018;8.570;2023-03-23T17:01:41;4.32;;;3.28;;
23236;SDS011;11787;52.018;8.570;2023-03-23T17:04:07;4.05;;;3.20;;
23236;SDS011;11787;52.018;8.570;2023-03-23T17:06:32;3.78;;;2.90;;
23236;SDS011;11787;52.018;8.570;2023-03-23T17:08:58;4.05;;;3.30;;
23236;SDS011;11787;52.018;8.570;2023-03-23T17:11:23;3.78;;;3.20;;
23236;SDS011;11787;52.018;8.570;2023-03-23T17:13:49;5.75;;;3.72;;
23236;SDS011;11787;52.018;8.570;2023-03-23T17:16:15;4.57;;;3.38;;
23236;SDS011;11787;52.018;8.570;2023-03-23T17:18:40;4.53;;;3.22;;
23236;SDS011;11787;52.018;8.570;2023-03-23T17:21:06;7.80;;;3.80;;
23236;SDS011;11787;52.018;8.570;2023-03-23T17:23:32;4.55;;;3.45;;
23236;SDS011;11787;52.018;8.570;2023-03-23T17:25:57;4.72;;;3.58;;
23236;SDS011;11787;52.018;8.570;2023-03-23T17:28:23;5.05;;;3.53;;
23236;SDS011;11787;52.018;8.570;2023-03-23T17:30:50;4.63;;;3.40;;
23236;SDS011;11787;52.018;8.570;2023-03-23T17:33:16;5.30;;;3.72;;
23236;SDS011;11787;52.018;8.570;2023-03-23T17:35:44;7.32;;;3.80;;
23236;SDS011;11787;52.018;8.570;2023-03-23T17:38:10;4.88;;;3.42;;
23236;SDS011;11787;52.018;8.570;2023-03-23T17:40:36;6.38;;;3.70;;
23236;SDS011;11787;52.018;8.570;2023-03-23T17:43:01;5.47;;;3.92;;